createdAt,value
2023-02-11T00:02:36.818Z,0.80
2023-02-11T00:05:39.539Z,0.79
2023-02-11T00:08:42.156Z,0.65
2023-02-11T00:11:44.769Z,0.69
2023-02-11T00:14:47.393Z,0.50
2023-02-11T00:17:50.082Z,0.53
2023-02-11T00:20:52.461Z,0.54
2023-02-11T00:23:57.230Z,0.70
2023-02-11T00:27:00.382Z,0.63
2023-02-11T00:30:05.360Z,0.63
2023-02-11T00:33:07.745Z,0.52
2023-02-11T00:36:16.329Z,0.65
2023-02-11T00:39:20.746Z,0.66
2023-02-11T00:42:23.422Z,0.63
2023-02-11T00:45:25.775Z,0.67
2023-02-11T00:48:28.533Z,0.70
2023-02-11T00:51:30.925Z,0.72
2023-02-11T00:54:33.551Z,0.67
2023-02-11T00:57:36.173Z,0.72
2023-02-11T01:00:38.913Z,0.77
2023-02-11T01:03:42.158Z,0.74
2023-02-11T01:06:44.821Z,0.80
2023-02-11T01:09:47.257Z,0.73
2023-02-11T01:12:50.264Z,0.67
2023-02-11T01:15:53.714Z,0.61
2023-02-11T01:18:56.503Z,0.42
2023-02-11T01:21:59.093Z,0.60
2023-02-11T01:25:01.746Z,0.57
2023-02-11T01:28:04.659Z,0.54
2023-02-11T01:31:07.617Z,0.55
2023-02-11T01:34:10.048Z,0.61
2023-02-11T01:37:12.899Z,0.69
2023-02-11T01:40:17.640Z,0.60
2023-02-11T01:43:20.846Z,0.56
2023-02-11T01:46:32.287Z,0.57
2023-02-11T01:49:38.976Z,0.64
2023-02-11T01:52:42.642Z,0.56
2023-02-11T01:56:04.091Z,0.66
2023-02-11T01:59:17.256Z,0.51
2023-02-11T02:02:25.983Z,0.28
2023-02-11T02:05:35.834Z,0.37
2023-02-11T02:08:47.325Z,0.28
2023-02-11T02:11:50.460Z,0.33
2023-02-11T02:15:08.969Z,0.32
2023-02-11T02:18:14.500Z,0.28
2023-02-11T02:21:28.970Z,0.18
2023-02-11T02:25:05.721Z,0.10
2023-02-11T02:28:14.152Z,0.07
2023-02-11T02:31:28.877Z,0.10
2023-02-11T02:35:09.820Z,-0.09
2023-02-11T02:38:27.534Z,0.02
2023-02-11T02:41:35.492Z,-0.02
2023-02-11T02:44:38.156Z,-0.14
2023-02-11T02:47:40.748Z,-0.21
2023-02-11T02:50:43.774Z,-0.25
2023-02-11T02:54:07.670Z,-0.18
2023-02-11T02:57:25.703Z,-0.29
2023-02-11T03:01:17.196Z,-0.11
2023-02-11T03:04:29.567Z,-0.06
2023-02-11T03:07:43.106Z,-0.11
2023-02-11T03:10:50.079Z,-0.11
2023-02-11T03:13:54.823Z,-0.18
2023-02-11T03:17:00.484Z,-0.19
2023-02-11T03:20:06.833Z,-0.28
2023-02-11T03:23:15.604Z,-0.18
2023-02-11T03:26:46.695Z,-0.24
2023-02-11T03:30:01.480Z,-0.38
2023-02-11T03:33:28.121Z,-0.49
2023-02-11T03:36:55.990Z,-0.34
2023-02-11T03:40:05.308Z,-0.36
2023-02-11T03:43:19.357Z,-0.34
2023-02-11T03:46:27.575Z,-0.47
2023-02-11T03:49:33.319Z,-0.40
2023-02-11T03:52:38.011Z,-0.37
2023-02-11T03:55:42.211Z,-0.30
2023-02-11T03:58:46.105Z,-0.28
2023-02-11T04:01:48.967Z,-0.35
2023-02-11T04:04:51.685Z,-0.30
2023-02-11T04:07:54.142Z,-0.34
2023-02-11T04:10:56.810Z,-0.32
2023-02-11T04:13:59.182Z,-0.30
2023-02-11T04:17:03.068Z,-0.45
2023-02-11T04:20:05.779Z,-0.49
2023-02-11T04:23:08.590Z,-0.36
2023-02-11T04:26:10.959Z,-0.35
2023-02-11T04:29:13.629Z,-0.35
2023-02-11T04:32:16.195Z,-0.40
2023-02-11T04:35:19.010Z,-0.38
2023-02-11T04:38:23.932Z,-0.39
2023-02-11T04:41:26.580Z,-0.40
2023-02-11T04:44:28.994Z,-0.39
2023-02-11T04:47:31.643Z,-0.39
2023-02-11T04:50:34.007Z,-0.36
2023-02-11T04:53:36.741Z,-0.44
2023-02-11T04:56:39.508Z,-0.43
2023-02-11T04:59:42.359Z,-0.44
2023-02-11T05:02:44.741Z,-0.43
2023-02-11T05:05:47.409Z,-0.39
2023-02-11T05:08:49.995Z,-0.46
2023-02-11T05:11:53.670Z,-0.42
2023-02-11T05:14:56.049Z,-0.52
2023-02-11T05:17:58.739Z,-0.52
2023-02-11T05:21:07.123Z,-0.60
2023-02-11T05:24:09.757Z,-0.66
2023-02-11T05:27:12.112Z,-0.68
2023-02-11T05:30:14.759Z,-0.82
2023-02-11T05:33:17.173Z,-0.81
2023-02-11T05:36:19.784Z,-0.88
2023-02-11T05:39:22.199Z,-0.87
2023-02-11T05:42:24.844Z,-0.87
2023-02-11T05:45:27.285Z,-0.93
2023-02-11T05:48:30.920Z,-0.89
2023-02-11T05:51:33.216Z,-0.94
2023-02-11T05:54:35.866Z,-1.02
2023-02-11T05:57:39.417Z,-1.15
2023-02-11T06:00:41.986Z,-0.98
2023-02-11T06:03:44.701Z,-1.11
2023-02-11T06:06:47.063Z,-1.07
2023-02-11T06:09:49.757Z,-0.94
2023-02-11T06:12:52.159Z,-0.94
2023-02-11T06:15:59.569Z,-1.03
2023-02-11T06:19:02.122Z,-0.82
2023-02-11T06:22:04.939Z,-0.86
2023-02-11T06:25:07.381Z,-0.89
2023-02-11T06:28:10.772Z,-0.87
2023-02-11T06:31:13.417Z,-0.89
2023-02-11T06:34:16.090Z,-0.89
2023-02-11T06:37:18.420Z,-0.73
2023-02-11T06:40:21.346Z,-0.56
2023-02-11T06:43:23.654Z,-0.49
2023-02-11T06:46:26.434Z,-0.30
2023-02-11T06:49:29.088Z,-0.26
2023-02-11T06:52:32.394Z,-0.38
2023-02-11T06:55:35.413Z,-0.36
2023-02-11T06:58:38.386Z,-0.18
2023-02-11T07:01:40.712Z,-0.37
2023-02-11T07:04:43.429Z,-0.19
2023-02-11T07:07:45.916Z,-0.10
2023-02-11T07:10:48.842Z,-0.14
2023-02-11T07:13:52.860Z,0.10
2023-02-11T07:16:55.432Z,0.17
2023-02-11T07:19:57.840Z,0.23
2023-02-11T07:23:00.801Z,0.27
2023-02-11T07:26:12.029Z,0.09
2023-02-11T07:29:14.837Z,0.43
2023-02-11T07:32:17.291Z,0.59
2023-02-11T07:35:20.026Z,0.93
2023-02-11T07:38:22.425Z,1.20
2023-02-11T07:41:26.062Z,1.24
2023-02-11T07:44:28.380Z,1.52
2023-02-11T07:47:31.011Z,1.57
2023-02-11T07:50:33.424Z,1.70
2023-02-11T07:53:36.220Z,1.77
2023-02-11T07:56:38.596Z,1.71
2023-02-11T07:59:41.238Z,1.77
2023-02-11T08:02:43.540Z,1.95
2023-02-11T08:05:46.172Z,1.99
2023-02-11T08:08:49.221Z,2.02
2023-02-11T08:11:51.853Z,2.07
2023-02-11T08:14:54.210Z,2.15
2023-02-11T08:17:57.157Z,2.25
2023-02-11T08:21:08.115Z,2.31
2023-02-11T08:24:10.988Z,2.46
2023-02-11T08:27:13.284Z,2.33
2023-02-11T08:30:15.902Z,2.44
2023-02-11T08:33:18.258Z,2.40
2023-02-11T08:36:23.774Z,2.42
2023-02-11T08:39:26.193Z,2.46
2023-02-11T08:42:28.798Z,2.51
2023-02-11T08:45:31.291Z,2.50
2023-02-11T08:48:34.058Z,2.49
2023-02-11T08:51:36.437Z,2.66
2023-02-11T08:54:39.246Z,2.58
2023-02-11T08:57:41.582Z,2.84
2023-02-11T09:00:45.350Z,2.85
2023-02-11T09:03:48.164Z,2.67
2023-02-11T09:06:50.858Z,2.92
2023-02-11T09:09:53.326Z,2.96
2023-02-11T09:12:56.041Z,2.99
2023-02-11T09:15:59.786Z,3.16
2023-02-11T09:19:04.832Z,3.41
2023-02-11T09:22:07.354Z,3.63
2023-02-11T09:25:11.366Z,3.77
2023-02-11T09:28:13.738Z,3.89
2023-02-11T09:31:19.522Z,4.35
2023-02-11T09:34:22.007Z,4.35
2023-02-11T09:37:24.645Z,4.23
2023-02-11T09:40:27.090Z,4.60
2023-02-11T09:43:44.771Z,4.57
2023-02-11T09:46:54.794Z,4.72
2023-02-11T09:50:02.512Z,4.79
2023-02-11T09:53:35.390Z,5.02
2023-02-11T09:56:38.052Z,4.86
2023-02-11T09:59:40.574Z,4.87
2023-02-11T10:03:14.257Z,4.97
2023-02-11T10:06:40.827Z,4.88
2023-02-11T10:09:55.327Z,4.88
2023-02-11T10:13:03.621Z,5.08
2023-02-11T10:16:18.039Z,5.21
2023-02-11T10:19:33.966Z,5.30
2023-02-11T10:22:52.951Z,5.13
2023-02-11T10:25:57.488Z,5.34
2023-02-11T10:29:04.877Z,5.26
2023-02-11T10:32:29.651Z,5.47
2023-02-11T10:35:32.747Z,5.44
2023-02-11T10:38:36.976Z,5.54
2023-02-11T10:41:44.477Z,5.52
2023-02-11T10:45:07.428Z,5.30
2023-02-11T10:48:40.936Z,5.54
2023-02-11T10:51:45.858Z,5.74
2023-02-11T10:55:16.180Z,6.11
2023-02-11T10:58:45.418Z,6.28
2023-02-11T11:01:52.628Z,6.03
2023-02-11T11:04:59.824Z,6.08
2023-02-11T11:08:08.748Z,6.17
2023-02-11T11:11:15.532Z,6.27
2023-02-11T11:14:22.205Z,6.50
2023-02-11T11:17:29.073Z,6.56
2023-02-11T11:20:36.282Z,6.39
2023-02-11T11:23:40.047Z,6.21
2023-02-11T11:26:45.849Z,6.27
2023-02-11T11:29:52.057Z,6.04
2023-02-11T11:32:54.920Z,5.70
2023-02-11T11:35:59.512Z,5.75
2023-02-11T11:39:15.412Z,5.89
2023-02-11T11:42:35.672Z,6.29
2023-02-11T11:45:38.080Z,6.53
2023-02-11T11:48:47.079Z,6.56
2023-02-11T11:52:15.893Z,6.67
2023-02-11T11:55:22.764Z,6.78
2023-02-11T11:58:25.129Z,6.68
2023-02-11T12:01:43.153Z,6.71
2023-02-11T12:05:05.760Z,6.90
2023-02-11T12:08:28.354Z,7.20
2023-02-11T12:11:37.231Z,7.48
2023-02-11T12:14:42.522Z,7.29
2023-02-11T12:18:38.653Z,6.96
2023-02-11T12:21:59.635Z,7.08
2023-02-11T12:25:15.123Z,7.29
2023-02-11T12:28:37.023Z,7.20
2023-02-11T12:32:08.025Z,7.37
2023-02-11T12:35:21.928Z,7.26
2023-02-11T12:38:24.472Z,7.40
2023-02-11T12:42:20.033Z,7.43
2023-02-11T12:45:35.954Z,7.32
2023-02-11T12:49:04.367Z,7.09
2023-02-11T12:52:16.183Z,7.27
2023-02-11T12:55:27.012Z,7.44
2023-02-11T12:58:44.654Z,7.59
2023-02-11T13:01:51.938Z,7.39
2023-02-11T13:04:59.039Z,7.32
2023-02-11T13:08:17.001Z,7.29
2023-02-11T13:11:41.083Z,7.68
2023-02-11T13:14:43.572Z,7.62
2023-02-11T13:18:02.249Z,7.60
2023-02-11T13:21:19.509Z,7.60
2023-02-11T13:24:34.772Z,7.53
2023-02-11T13:28:07.277Z,7.60
2023-02-11T13:31:12.671Z,7.54
2023-02-11T13:34:50.180Z,7.55
2023-02-11T13:37:52.919Z,7.56
2023-02-11T13:41:13.721Z,7.56
2023-02-11T13:44:22.336Z,7.53
2023-02-11T13:47:33.921Z,7.42
2023-02-11T13:50:47.831Z,7.40
2023-02-11T13:53:58.263Z,7.35
2023-02-11T13:57:26.988Z,7.37
2023-02-11T14:00:35.315Z,7.40
2023-02-11T14:03:58.120Z,7.48
2023-02-11T14:07:51.338Z,7.47
2023-02-11T14:11:12.819Z,7.41
2023-02-11T14:14:25.511Z,7.47
2023-02-11T14:17:33.869Z,7.65
2023-02-11T14:20:42.184Z,7.74
2023-02-11T14:23:46.064Z,7.81
2023-02-11T14:26:59.256Z,7.87
2023-02-11T14:30:32.161Z,7.91
2023-02-11T14:33:50.911Z,7.83
2023-02-11T14:37:02.655Z,7.79
2023-02-11T14:40:23.311Z,7.67
2023-02-11T14:43:31.742Z,7.59
2023-02-11T14:46:34.845Z,7.57
2023-02-11T14:49:40.761Z,7.57
2023-02-11T14:52:44.299Z,7.72
2023-02-11T14:55:54.970Z,7.74
2023-02-11T14:58:58.370Z,7.73
2023-02-11T15:02:01.146Z,7.56
2023-02-11T15:05:26.202Z,7.56
2023-02-11T15:08:30.997Z,7.42
2023-02-11T15:11:40.270Z,7.36
2023-02-11T15:14:48.326Z,7.24
2023-02-11T15:17:51.125Z,7.13
2023-02-11T15:20:54.461Z,7.30
2023-02-11T15:24:06.763Z,7.27
2023-02-11T15:27:11.803Z,7.27
2023-02-11T15:30:25.008Z,7.27
2023-02-11T15:33:30.235Z,7.05
2023-02-11T15:36:36.262Z,7.12
2023-02-11T15:39:41.256Z,7.12
2023-02-11T15:42:58.751Z,7.09
2023-02-11T15:46:02.111Z,6.91
2023-02-11T15:49:04.897Z,6.99
2023-02-11T15:52:08.382Z,6.96
2023-02-11T15:55:14.632Z,6.83
2023-02-11T15:58:17.346Z,6.90
2023-02-11T16:01:19.755Z,6.82
2023-02-11T16:04:25.566Z,6.71
2023-02-11T16:07:50.505Z,6.62
2023-02-11T16:10:59.767Z,6.70
2023-02-11T16:14:05.157Z,6.68
2023-02-11T16:17:13.442Z,6.67
2023-02-11T16:20:19.746Z,6.66
2023-02-11T16:23:33.159Z,6.65
2023-02-11T16:26:43.173Z,6.63
2023-02-11T16:29:49.825Z,6.55
2023-02-11T16:32:54.161Z,6.47
2023-02-11T16:35:57.846Z,6.40
2023-02-11T16:39:00.181Z,6.45
2023-02-11T16:42:06.442Z,6.40
2023-02-11T16:45:10.185Z,6.40
2023-02-11T16:48:18.089Z,6.38
2023-02-11T16:51:20.545Z,6.35
2023-02-11T16:54:24.219Z,6.31
2023-02-11T16:57:29.880Z,6.23
2023-02-11T17:00:33.164Z,6.19
2023-02-11T17:03:40.590Z,6.25
2023-02-11T17:06:43.289Z,6.25
2023-02-11T17:09:45.681Z,6.15
2023-02-11T17:12:49.064Z,6.21
2023-02-11T17:15:51.770Z,6.17
2023-02-11T17:18:54.889Z,6.15
2023-02-11T17:21:57.321Z,6.13
2023-02-11T17:25:00.035Z,6.14
2023-02-11T17:28:02.532Z,6.08
2023-02-11T17:31:09.506Z,5.95
2023-02-11T17:34:12.362Z,6.14
2023-02-11T17:37:15.268Z,6.18
2023-02-11T17:40:17.729Z,6.18
2023-02-11T17:43:20.329Z,6.22
2023-02-11T17:46:22.690Z,6.19
2023-02-11T17:49:25.408Z,6.19
2023-02-11T17:52:28.274Z,6.04
2023-02-11T17:55:34.079Z,6.22
2023-02-11T17:58:36.537Z,6.18
2023-02-11T18:01:41.245Z,6.21
2023-02-11T18:04:43.905Z,6.25
2023-02-11T18:07:48.033Z,6.22
2023-02-11T18:10:50.738Z,6.21
2023-02-11T18:13:54.615Z,6.24
2023-02-11T18:16:57.477Z,6.14
2023-02-11T18:19:59.866Z,6.21
2023-02-11T18:23:03.141Z,6.20
2023-02-11T18:26:10.000Z,6.19
2023-02-11T18:29:12.660Z,6.13
2023-02-11T18:32:15.238Z,6.06
2023-02-11T18:35:17.900Z,6.06
2023-02-11T18:38:20.713Z,6.05
2023-02-11T18:41:23.531Z,6.10
2023-02-11T18:44:27.449Z,6.04
2023-02-11T18:47:31.614Z,6.20
2023-02-11T18:50:34.045Z,6.22
2023-02-11T18:53:36.927Z,6.20
2023-02-11T18:56:40.481Z,6.22
2023-02-11T18:59:43.804Z,6.16
2023-02-11T19:02:46.154Z,6.19
2023-02-11T19:05:49.834Z,6.22
2023-02-11T19:08:53.910Z,6.11
2023-02-11T19:11:57.962Z,6.13
2023-02-11T19:15:00.852Z,6.21
2023-02-11T19:18:03.624Z,6.24
2023-02-11T19:21:11.348Z,6.38
2023-02-11T19:24:17.249Z,6.38
2023-02-11T19:27:19.538Z,6.47
2023-02-11T19:30:22.297Z,6.47
2023-02-11T19:33:24.684Z,6.45
2023-02-11T19:36:27.928Z,6.52
2023-02-11T19:39:31.378Z,6.43
2023-02-11T19:42:34.181Z,6.33
2023-02-11T19:45:37.845Z,6.43
2023-02-11T19:48:40.538Z,6.43
2023-02-11T19:51:43.464Z,6.41
2023-02-11T19:54:46.402Z,6.26
2023-02-11T19:57:51.675Z,6.34
2023-02-11T20:00:54.429Z,6.43
2023-02-11T20:03:57.773Z,6.34
2023-02-11T20:07:00.372Z,6.26
2023-02-11T20:10:03.381Z,6.22
2023-02-11T20:13:05.800Z,6.33
2023-02-11T20:16:12.414Z,6.16
2023-02-11T20:19:18.368Z,6.26
2023-02-11T20:22:21.265Z,6.27
2023-02-11T20:25:23.730Z,6.18
2023-02-11T20:28:26.747Z,6.25
2023-02-11T20:31:32.631Z,6.26
2023-02-11T20:34:35.461Z,6.16
2023-02-11T20:37:38.796Z,6.28
2023-02-11T20:40:44.166Z,6.28
2023-02-11T20:43:49.149Z,6.27
2023-02-11T20:46:53.855Z,6.15
2023-02-11T20:49:56.318Z,6.12
2023-02-11T20:52:59.005Z,6.22
2023-02-11T20:56:07.000Z,6.08
2023-02-11T20:59:10.053Z,6.20
2023-02-11T21:02:13.409Z,6.17
2023-02-11T21:05:16.248Z,6.18
2023-02-11T21:08:18.658Z,6.16
2023-02-11T21:11:21.317Z,6.18
2023-02-11T21:14:25.634Z,6.11
2023-02-11T21:17:28.256Z,6.06
2023-02-11T21:20:30.569Z,6.06
2023-02-11T21:23:33.218Z,5.94
2023-02-11T21:26:36.072Z,6.03
2023-02-11T21:29:52.676Z,6.04
2023-02-11T21:32:58.476Z,6.01
2023-02-11T21:36:03.594Z,5.91
2023-02-11T21:39:06.034Z,5.84
2023-02-11T21:42:08.922Z,5.94
2023-02-11T21:45:11.301Z,5.79
2023-02-11T21:48:14.859Z,5.92
2023-02-11T21:51:20.294Z,5.92
2023-02-11T21:54:25.911Z,5.79
2023-02-11T21:57:28.302Z,5.88
2023-02-11T22:00:31.812Z,5.71
2023-02-11T22:03:34.482Z,5.69
2023-02-11T22:06:36.888Z,5.70
2023-02-11T22:09:40.785Z,5.57
2023-02-11T22:12:43.414Z,5.68
2023-02-11T22:15:46.117Z,5.68
2023-02-11T22:18:48.562Z,5.50
2023-02-11T22:21:51.356Z,5.51
2023-02-11T22:24:54.097Z,5.54
2023-02-11T22:27:57.076Z,5.49
2023-02-11T22:30:59.642Z,5.32
2023-02-11T22:34:04.545Z,5.32
2023-02-11T22:37:07.640Z,5.40
2023-02-11T22:40:10.846Z,5.24
2023-02-11T22:43:13.348Z,5.23
2023-02-11T22:46:18.075Z,5.33
2023-02-11T22:49:22.270Z,5.27
2023-02-11T22:52:25.129Z,5.16
2023-02-11T22:55:27.628Z,5.25
2023-02-11T22:58:32.795Z,5.23
2023-02-11T23:01:36.759Z,5.26
2023-02-11T23:04:39.422Z,5.27
2023-02-11T23:07:41.869Z,5.27
2023-02-11T23:10:44.599Z,5.14
2023-02-11T23:13:48.930Z,5.13
2023-02-11T23:16:51.664Z,5.09
2023-02-11T23:19:54.278Z,5.15
2023-02-11T23:22:56.988Z,5.13
2023-02-11T23:25:59.312Z,5.00
2023-02-11T23:29:02.015Z,5.06
2023-02-11T23:32:05.003Z,5.05
2023-02-11T23:35:07.853Z,4.94
2023-02-11T23:38:10.320Z,5.04
2023-02-11T23:41:13.741Z,5.06
2023-02-11T23:44:16.163Z,5.06
2023-02-11T23:47:18.808Z,4.89
2023-02-11T23:50:21.323Z,4.95
2023-02-11T23:53:24.144Z,4.95
2023-02-11T23:56:27.749Z,4.92
2023-02-11T23:59:30.598Z,4.90
